sensor_id;sensor_type;location;lat;lon;timestamp;pressure;altitude;pressure_sealevel;temperature;humidity
79085;BME280;68486;42.808;23.422;2023-05-10T00:01:28;94442.94;;;8.14;87.83
79085;BME280;68486;42.808;23.422;2023-05-10T00:03:53;94457.16;;;8.03;87.68
79085;BME280;68486;42.808;23.422;2023-05-10T00:06:18;94450.03;;;7.97;88.49
79085;BME280;68486;42.808;23.422;2023-05-10T00:08:44;94447.41;;;7.97;88.11
79085;BME280;68486;42.808;23.422;2023-05-10T00:11:10;94451.44;;;8.08;87.93
79085;BME280;68486;42.808;23.422;2023-05-10T00:13:36;94453.91;;;8.01;87.96
79085;BME280;68486;42.808;23.422;2023-05-10T00:16:01;94443.88;;;7.82;88.63
79085;BME280;68486;42.808;23.422;2023-05-10T00:18:27;94446.75;;;7.95;88.25
79085;BME280;68486;42.808;23.422;2023-05-10T00:20:52;94447.16;;;7.84;88.33
79085;BME280;68486;42.808;23.422;2023-05-10T00:23:18;94445.84;;;7.80;87.77
79085;BME280;68486;42.808;23.422;2023-05-10T00:25:43;94442.25;;;7.81;88.45
79085;BME280;68486;42.808;23.422;2023-05-10T00:28:09;94440.63;;;7.80;88.37
79085;BME280;68486;42.808;23.422;2023-05-10T00:30:34;94446.50;;;7.73;88.43
79085;BME280;68486;42.808;23.422;2023-05-10T00:32:59;94438.72;;;7.65;88.14
79085;BME280;68486;42.808;23.422;2023-05-10T00:35:25;94438.38;;;7.77;88.79
79085;BME280;68486;42.808;23.422;2023-05-10T00:37:51;94430.38;;;7.78;88.55
79085;BME280;68486;42.808;23.422;2023-05-10T00:40:16;94434.91;;;7.84;88.03
79085;BME280;68486;42.808;23.422;2023-05-10T00:42:42;94435.44;;;7.71;88.95
79085;BME280;68486;42.808;23.422;2023-05-10T00:45:08;94428.13;;;7.75;88.82
79085;BME280;68486;42.808;23.422;2023-05-10T00:47:34;94427.84;;;7.62;88.54
79085;BME280;68486;42.808;23.422;2023-05-10T00:50:00;94430.19;;;7.80;88.77
79085;BME280;68486;42.808;23.422;2023-05-10T00:52:29;94424.69;;;7.66;88.64
79085;BME280;68486;42.808;23.422;2023-05-10T00:54:55;94419.34;;;7.68;89.18
79085;BME280;68486;42.808;23.422;2023-05-10T00:57:21;94421.78;;;7.69;88.98
79085;BME280;68486;42.808;23.422;2023-05-10T00:59:48;94413.59;;;7.72;89.00
79085;BME280;68486;42.808;23.422;2023-05-10T01:02:13;94412.31;;;7.68;88.92
79085;BME280;68486;42.808;23.422;2023-05-10T01:04:39;94412.84;;;7.56;89.39
79085;BME280;68486;42.808;23.422;2023-05-10T01:07:05;94403.25;;;7.56;88.99
79085;BME280;68486;42.808;23.422;2023-05-10T01:09:31;94419.97;;;7.70;89.26
79085;BME280;68486;42.808;23.422;2023-05-10T01:11:58;94405.84;;;7.56;89.23
79085;BME280;68486;42.808;23.422;2023-05-10T01:14:24;94421.13;;;7.59;89.97
79085;BME280;68486;42.808;23.422;2023-05-10T01:16:52;94420.16;;;7.68;90.07
79085;BME280;68486;42.808;23.422;2023-05-10T01:19:21;94416.03;;;7.74;89.16
79085;BME280;68486;42.808;23.422;2023-05-10T01:30:08;94422.06;;;7.74;89.53
79085;BME280;68486;42.808;23.422;2023-05-10T01:33:41;94390.97;;;7.65;89.68
79085;BME280;68486;42.808;23.422;2023-05-10T01:36:03;94414.22;;;7.83;88.71
79085;BME280;68486;42.808;23.422;2023-05-10T01:38:47;94407.72;;;7.79;89.24
79085;BME280;68486;42.808;23.422;2023-05-10T01:41:19;94406.09;;;7.78;89.76
79085;BME280;68486;42.808;23.422;2023-05-10T01:46:38;94407.41;;;7.73;89.62
79085;BME280;68486;42.808;23.422;2023-05-10T01:49:39;94402.16;;;7.82;89.91
79085;BME280;68486;42.808;23.422;2023-05-10T01:52:09;94403.66;;;7.76;89.52
79085;BME280;68486;42.808;23.422;2023-05-10T01:54:38;94403.00;;;7.82;88.81
79085;BME280;68486;42.808;23.422;2023-05-10T01:57:08;94403.78;;;7.83;90.04
79085;BME280;68486;42.808;23.422;2023-05-10T01:59:39;94402.50;;;7.79;89.48
79085;BME280;68486;42.808;23.422;2023-05-10T02:02:08;94403.94;;;7.81;89.16
79085;BME280;68486;42.808;23.422;2023-05-10T02:04:38;94413.19;;;7.92;89.08
79085;BME280;68486;42.808;23.422;2023-05-10T02:07:05;94400.88;;;7.78;89.70
79085;BME280;68486;42.808;23.422;2023-05-10T02:09:32;94396.94;;;7.82;90.44
79085;BME280;68486;42.808;23.422;2023-05-10T02:11:59;94394.97;;;7.84;89.88
79085;BME280;68486;42.808;23.422;2023-05-10T02:14:29;94398.91;;;7.80;89.38
79085;BME280;68486;42.808;23.422;2023-05-10T02:16:56;94394.75;;;7.62;90.29
79085;BME280;68486;42.808;23.422;2023-05-10T02:19:23;94396.03;;;7.66;90.21
79085;BME280;68486;42.808;23.422;2023-05-10T02:21:50;94395.75;;;7.61;90.48
79085;BME280;68486;42.808;23.422;2023-05-10T02:24:17;94365.50;;;7.36;90.60
79085;BME280;68486;42.808;23.422;2023-05-10T02:26:45;94399.66;;;7.57;90.11
79085;BME280;68486;42.808;23.422;2023-05-10T02:29:12;94399.47;;;7.59;89.83
79085;BME280;68486;42.808;23.422;2023-05-10T02:31:38;94387.38;;;7.27;89.30
79085;BME280;68486;42.808;23.422;2023-05-10T02:34:07;94392.41;;;7.28;88.70
79085;BME280;68486;42.808;23.422;2023-05-10T02:36:33;94400.22;;;7.28;89.15
79085;BME280;68486;42.808;23.422;2023-05-10T02:39:00;94388.22;;;7.11;88.70
79085;BME280;68486;42.808;23.422;2023-05-10T02:41:27;94398.50;;;6.96;88.82
79085;BME280;68486;42.808;23.422;2023-05-10T02:43:56;94400.63;;;6.84;88.60
79085;BME280;68486;42.808;23.422;2023-05-10T02:46:23;94399.00;;;6.83;88.60
79085;BME280;68486;42.808;23.422;2023-05-10T02:48:48;94407.28;;;7.03;87.55
79085;BME280;68486;42.808;23.422;2023-05-10T02:51:16;94404.34;;;7.06;88.03
79085;BME280;68486;42.808;23.422;2023-05-10T02:53:44;94404.69;;;6.87;86.70
79085;BME280;68486;42.808;23.422;2023-05-10T02:56:24;94411.22;;;6.83;86.24
79085;BME280;68486;42.808;23.422;2023-05-10T02:58:51;94413.97;;;6.89;85.54
79085;BME280;68486;42.808;23.422;2023-05-10T03:01:16;94417.06;;;6.93;86.41
79085;BME280;68486;42.808;23.422;2023-05-10T03:03:42;94409.59;;;6.82;85.91
79085;BME280;68486;42.808;23.422;2023-05-10T03:06:07;94421.63;;;6.91;85.48
79085;BME280;68486;42.808;23.422;2023-05-10T03:08:33;94423.88;;;7.02;86.09
79085;BME280;68486;42.808;23.422;2023-05-10T03:13:48;94411.53;;;6.80;85.97
79085;BME280;68486;42.808;23.422;2023-05-10T03:16:28;94407.47;;;6.45;84.27
79085;BME280;68486;42.808;23.422;2023-05-10T03:18:58;94408.94;;;6.55;86.28
79085;BME280;68486;42.808;23.422;2023-05-10T03:21:28;94411.53;;;6.63;86.37
79085;BME280;68486;42.808;23.422;2023-05-10T03:24:21;94417.72;;;6.71;84.34
79085;BME280;68486;42.808;23.422;2023-05-10T03:26:48;94410.56;;;6.48;84.52
79085;BME280;68486;42.808;23.422;2023-05-10T03:29:15;94419.34;;;6.39;83.48
79085;BME280;68486;42.808;23.422;2023-05-10T03:31:41;94425.16;;;6.25;83.27
79085;BME280;68486;42.808;23.422;2023-05-10T03:34:07;94416.09;;;6.45;82.65
79085;BME280;68486;42.808;23.422;2023-05-10T03:36:32;94414.13;;;6.39;81.95
79085;BME280;68486;42.808;23.422;2023-05-10T03:38:58;94419.50;;;6.62;81.83
79085;BME280;68486;42.808;23.422;2023-05-10T03:41:23;94421.75;;;6.24;82.34
79085;BME280;68486;42.808;23.422;2023-05-10T03:43:50;94422.56;;;6.25;82.18
79085;BME280;68486;42.808;23.422;2023-05-10T03:46:15;94421.25;;;6.21;81.43
79085;BME280;68486;42.808;23.422;2023-05-10T03:48:40;94427.13;;;6.31;80.92
79085;BME280;68486;42.808;23.422;2023-05-10T03:51:06;94416.41;;;6.34;81.34
79085;BME280;68486;42.808;23.422;2023-05-10T03:53:31;94422.56;;;6.25;80.36
79085;BME280;68486;42.808;23.422;2023-05-10T03:55:57;94396.22;;;6.12;80.02
79085;BME280;68486;42.808;23.422;2023-05-10T03:58:22;94428.75;;;6.32;82.01
79085;BME280;68486;42.808;23.422;2023-05-10T04:00:47;94433.16;;;6.31;80.44
79085;BME280;68486;42.808;23.422;2023-05-10T04:03:13;94410.38;;;6.25;80.53
79085;BME280;68486;42.808;23.422;2023-05-10T04:05:39;94437.03;;;6.44;80.50
79085;BME280;68486;42.808;23.422;2023-05-10T04:08:05;94432.81;;;6.34;81.06
79085;BME280;68486;42.808;23.422;2023-05-10T04:10:31;94426.00;;;6.33;81.37
79085;BME280;68486;42.808;23.422;2023-05-10T04:12:56;94428.41;;;6.35;80.58
79085;BME280;68486;42.808;23.422;2023-05-10T04:15:22;94430.22;;;6.43;81.24
79085;BME280;68486;42.808;23.422;2023-05-10T04:17:47;94420.78;;;6.42;80.35
79085;BME280;68486;42.808;23.422;2023-05-10T04:20:13;94414.59;;;6.26;80.71
79085;BME280;68486;42.808;23.422;2023-05-10T04:22:38;94401.41;;;6.28;81.08
79085;BME280;68486;42.808;23.422;2023-05-10T04:25:04;94431.53;;;6.71;80.58
79085;BME280;68486;42.808;23.422;2023-05-10T04:27:30;94431.03;;;6.51;80.73
79085;BME280;68486;42.808;23.422;2023-05-10T04:29:56;94436.75;;;6.79;79.83
79085;BME280;68486;42.808;23.422;2023-05-10T04:32:22;94437.56;;;6.88;76.88
79085;BME280;68486;42.808;23.422;2023-05-10T04:34:47;94444.25;;;6.90;79.33
79085;BME280;68486;42.808;23.422;2023-05-10T04:37:12;94438.53;;;6.71;77.76
79085;BME280;68486;42.808;23.422;2023-05-10T04:39:38;94439.97;;;7.14;79.60
79085;BME280;68486;42.808;23.422;2023-05-10T04:42:03;94426.81;;;6.91;77.05
79085;BME280;68486;42.808;23.422;2023-05-10T04:44:31;94446.03;;;6.98;76.98
79085;BME280;68486;42.808;23.422;2023-05-10T04:46:56;94447.47;;;7.09;77.79
79085;BME280;68486;42.808;23.422;2023-05-10T04:49:22;94451.88;;;7.08;76.26
79085;BME280;68486;42.808;23.422;2023-05-10T04:51:47;94451.47;;;7.44;74.88
79085;BME280;68486;42.808;23.422;2023-05-10T04:54:13;94452.81;;;7.40;76.91
79085;BME280;68486;42.808;23.422;2023-05-10T04:56:38;94437.75;;;7.58;76.56
79085;BME280;68486;42.808;23.422;2023-05-10T04:59:03;94454.47;;;7.25;78.87
79085;BME280;68486;42.808;23.422;2023-05-10T05:01:29;94438.97;;;7.23;75.95
79085;BME280;68486;42.808;23.422;2023-05-10T05:03:54;94450.69;;;7.43;75.90
79085;BME280;68486;42.808;23.422;2023-05-10T05:06:20;94455.06;;;7.43;77.22
79085;BME280;68486;42.808;23.422;2023-05-10T05:08:49;94453.84;;;7.78;77.19
79085;BME280;68486;42.808;23.422;2023-05-10T05:11:15;94450.72;;;7.83;77.06
79085;BME280;68486;42.808;23.422;2023-05-10T05:13:40;94452.38;;;7.76;75.48
79085;BME280;68486;42.808;23.422;2023-05-10T05:16:06;94458.09;;;7.71;75.96
79085;BME280;68486;42.808;23.422;2023-05-10T05:18:31;94454.38;;;7.57;74.25
79085;BME280;68486;42.808;23.422;2023-05-10T05:20:57;94440.41;;;7.89;75.32
79085;BME280;68486;42.808;23.422;2023-05-10T05:23:22;94453.38;;;7.66;74.25
79085;BME280;68486;42.808;23.422;2023-05-10T05:25:51;94459.97;;;8.24;74.14
79085;BME280;68486;42.808;23.422;2023-05-10T05:28:17;94446.59;;;8.27;73.97
79085;BME280;68486;42.808;23.422;2023-05-10T05:30:42;94457.41;;;8.16;74.68
79085;BME280;68486;42.808;23.422;2023-05-10T05:33:08;94461.72;;;8.32;73.99
79085;BME280;68486;42.808;23.422;2023-05-10T05:35:33;94458.50;;;8.30;73.85
79085;BME280;68486;42.808;23.422;2023-05-10T05:37:58;94451.81;;;8.36;73.50
79085;BME280;68486;42.808;23.422;2023-05-10T05:40:24;94457.47;;;8.39;74.03
79085;BME280;68486;42.808;23.422;2023-05-10T05:42:49;94461.22;;;8.45;72.57
79085;BME280;68486;42.808;23.422;2023-05-10T05:45:15;94446.78;;;8.57;75.85
79085;BME280;68486;42.808;23.422;2023-05-10T05:47:40;94447.94;;;8.77;73.86
79085;BME280;68486;42.808;23.422;2023-05-10T05:50:06;94453.84;;;8.94;70.54
79085;BME280;68486;42.808;23.422;2023-05-10T05:52:32;94455.31;;;8.74;72.57
79085;BME280;68486;42.808;23.422;2023-05-10T05:54:57;94461.38;;;9.12;69.86
79085;BME280;68486;42.808;23.422;2023-05-10T05:57:22;94458.25;;;9.31;71.79
79085;BME280;68486;42.808;23.422;2023-05-10T05:59:48;94458.47;;;8.69;68.03
79085;BME280;68486;42.808;23.422;2023-05-10T06:02:13;94471.53;;;8.61;72.25
79085;BME280;68486;42.808;23.422;2023-05-10T06:04:39;94459.13;;;8.32;72.23
79085;BME280;68486;42.808;23.422;2023-05-10T06:07:04;94466.31;;;8.30;70.81
79085;BME280;68486;42.808;23.422;2023-05-10T06:09:30;94440.38;;;8.06;70.74
79085;BME280;68486;42.808;23.422;2023-05-10T06:11:55;94471.34;;;8.32;71.72
79085;BME280;68486;42.808;23.422;2023-05-10T06:14:20;94441.50;;;8.03;71.46
79085;BME280;68486;42.808;23.422;2023-05-10T06:16:46;94478.84;;;8.43;71.49
79085;BME280;68486;42.808;23.422;2023-05-10T06:19:11;94470.84;;;8.44;70.49
79085;BME280;68486;42.808;23.422;2023-05-10T06:21:37;94468.75;;;8.32;71.22
79085;BME280;68486;42.808;23.422;2023-05-10T06:24:03;94471.03;;;8.35;70.71
79085;BME280;68486;42.808;23.422;2023-05-10T06:26:28;94475.38;;;8.73;70.28
79085;BME280;68486;42.808;23.422;2023-05-10T06:28:54;94482.34;;;8.81;69.28
79085;BME280;68486;42.808;23.422;2023-05-10T06:31:19;94482.09;;;8.91;69.19
79085;BME280;68486;42.808;23.422;2023-05-10T06:33:44;94469.22;;;8.89;68.22
79085;BME280;68486;42.808;23.422;2023-05-10T06:36:10;94477.94;;;8.59;66.33
79085;BME280;68486;42.808;23.422;2023-05-10T06:38:36;94475.91;;;8.92;65.75
79085;BME280;68486;42.808;23.422;2023-05-10T06:41:01;94471.22;;;8.87;65.94
79085;BME280;68486;42.808;23.422;2023-05-10T06:43:27;94460.13;;;9.23;66.04
79085;BME280;68486;42.808;23.422;2023-05-10T06:45:53;94476.50;;;9.54;65.29
79085;BME280;68486;42.808;23.422;2023-05-10T06:48:19;94475.56;;;9.32;65.39
79085;BME280;68486;42.808;23.422;2023-05-10T06:50:44;94464.56;;;9.22;62.23
79085;BME280;68486;42.808;23.422;2023-05-10T06:53:10;94468.16;;;9.21;62.25
79085;BME280;68486;42.808;23.422;2023-05-10T06:55:35;94473.06;;;9.54;65.22
79085;BME280;68486;42.808;23.422;2023-05-10T06:58:01;94478.31;;;9.68;64.56
79085;BME280;68486;42.808;23.422;2023-05-10T07:00:27;94481.41;;;9.72;63.89
79085;BME280;68486;42.808;23.422;2023-05-10T07:02:52;94485.84;;;9.49;64.87
79085;BME280;68486;42.808;23.422;2023-05-10T07:05:18;94478.59;;;9.59;63.16
79085;BME280;68486;42.808;23.422;2023-05-10T07:07:43;94477.78;;;9.73;65.77
79085;BME280;68486;42.808;23.422;2023-05-10T07:10:09;94459.09;;;9.47;64.14
79085;BME280;68486;42.808;23.422;2023-05-10T07:12:34;94475.59;;;9.77;65.04
79085;BME280;68486;42.808;23.422;2023-05-10T07:15:00;94470.13;;;10.01;64.14
79085;BME280;68486;42.808;23.422;2023-05-10T07:17:25;94471.28;;;10.28;64.80
79085;BME280;68486;42.808;23.422;2023-05-10T07:19:51;94489.16;;;10.10;63.63
79085;BME280;68486;42.808;23.422;2023-05-10T07:22:16;94480.59;;;10.67;65.44
79085;BME280;68486;42.808;23.422;2023-05-10T07:24:42;94484.72;;;10.40;65.94
79085;BME280;68486;42.808;23.422;2023-05-10T07:27:07;94492.03;;;10.44;66.01
79085;BME280;68486;42.808;23.422;2023-05-10T07:29:33;94488.09;;;10.55;64.75
79085;BME280;68486;42.808;23.422;2023-05-10T07:31:58;94487.44;;;10.68;63.28
79085;BME280;68486;42.808;23.422;2023-05-10T07:34:25;94495.28;;;10.32;63.12
79085;BME280;68486;42.808;23.422;2023-05-10T07:36:51;94497.72;;;9.89;63.16
79085;BME280;68486;42.808;23.422;2023-05-10T07:39:16;94469.72;;;10.19;61.70
79085;BME280;68486;42.808;23.422;2023-05-10T07:41:42;94501.06;;;10.27;59.68
79085;BME280;68486;42.808;23.422;2023-05-10T07:44:07;94496.78;;;10.56;60.84
79085;BME280;68486;42.808;23.422;2023-05-10T07:46:32;94497.25;;;10.44;61.87
79085;BME280;68486;42.808;23.422;2023-05-10T07:48:58;94491.88;;;10.67;59.44
79085;BME280;68486;42.808;23.422;2023-05-10T07:51:23;94493.84;;;10.80;59.98
79085;BME280;68486;42.808;23.422;2023-05-10T07:53:49;94498.56;;;10.91;58.86
79085;BME280;68486;42.808;23.422;2023-05-10T07:58:45;94498.47;;;11.77;58.93
79085;BME280;68486;42.808;23.422;2023-05-10T08:01:11;94476.50;;;11.28;57.30
79085;BME280;68486;42.808;23.422;2023-05-10T08:03:36;94497.75;;;11.83;56.03
79085;BME280;68486;42.808;23.422;2023-05-10T08:06:02;94495.50;;;11.58;57.11
79085;BME280;68486;42.808;23.422;2023-05-10T08:08:28;94492.69;;;11.32;56.46
79085;BME280;68486;42.808;23.422;2023-05-10T08:10:53;94511.09;;;12.23;56.90
79085;BME280;68486;42.808;23.422;2023-05-10T08:13:19;94494.31;;;12.17;57.63
79085;BME280;68486;42.808;23.422;2023-05-10T08:15:44;94491.91;;;11.87;55.20
79085;BME280;68486;42.808;23.422;2023-05-10T08:18:10;94500.81;;;12.28;57.72
79085;BME280;68486;42.808;23.422;2023-05-10T08:20:35;94505.78;;;12.57;54.24
79085;BME280;68486;42.808;23.422;2023-05-10T08:23:00;94499.34;;;12.66;53.64
79085;BME280;68486;42.808;23.422;2023-05-10T08:25:26;94505.13;;;13.16;53.22
79085;BME280;68486;42.808;23.422;2023-05-10T08:27:51;94499.47;;;13.06;53.53
79085;BME280;68486;42.808;23.422;2023-05-10T08:30:16;94490.63;;;13.20;50.51
79085;BME280;68486;42.808;23.422;2023-05-10T08:32:42;94492.66;;;13.71;52.17
79085;BME280;68486;42.808;23.422;2023-05-10T08:35:07;94498.28;;;13.95;51.12
79085;BME280;68486;42.808;23.422;2023-05-10T08:37:33;94491.22;;;14.60;51.14
79085;BME280;68486;42.808;23.422;2023-05-10T08:39:58;94499.13;;;13.49;51.29
79085;BME280;68486;42.808;23.422;2023-05-10T08:42:25;94490.22;;;13.70;50.30
79085;BME280;68486;42.808;23.422;2023-05-10T08:44:54;94486.56;;;13.77;49.09
79085;BME280;68486;42.808;23.422;2023-05-10T08:47:20;94497.69;;;13.40;49.85
79085;BME280;68486;42.808;23.422;2023-05-10T08:49:47;94500.09;;;14.01;49.71
79085;BME280;68486;42.808;23.422;2023-05-10T08:52:17;94491.84;;;13.77;50.46
79085;BME280;68486;42.808;23.422;2023-05-10T08:54:42;94479.91;;;13.55;50.99
79085;BME280;68486;42.808;23.422;2023-05-10T08:57:09;94495.69;;;13.55;50.15
79085;BME280;68486;42.808;23.422;2023-05-10T08:59:35;94502.56;;;13.43;50.60
79085;BME280;68486;42.808;23.422;2023-05-10T09:02:01;94507.09;;;12.94;51.43
79085;BME280;68486;42.808;23.422;2023-05-10T09:04:28;94510.03;;;13.52;51.87
79085;BME280;68486;42.808;23.422;2023-05-10T09:06:54;94486.56;;;13.64;50.21
79085;BME280;68486;42.808;23.422;2023-05-10T09:09:21;94503.56;;;13.82;51.54
79085;BME280;68486;42.808;23.422;2023-05-10T09:11:47;94499.72;;;13.71;50.81
79085;BME280;68486;42.808;23.422;2023-05-10T09:14:13;94503.59;;;13.55;51.01
79085;BME280;68486;42.808;23.422;2023-05-10T09:16:40;94505.47;;;14.46;50.01
79085;BME280;68486;42.808;23.422;2023-05-10T09:19:06;94468.78;;;13.33;49.94
79085;BME280;68486;42.808;23.422;2023-05-10T09:21:34;94496.28;;;13.84;51.10
79085;BME280;68486;42.808;23.422;2023-05-10T09:24:06;94497.09;;;13.91;48.67
79085;BME280;68486;42.808;23.422;2023-05-10T09:26:32;94476.03;;;13.77;48.06
79085;BME280;68486;42.808;23.422;2023-05-10T09:28:58;94490.56;;;13.07;50.00
79085;BME280;68486;42.808;23.422;2023-05-10T09:31:43;94491.41;;;13.61;49.19
79085;BME280;68486;42.808;23.422;2023-05-10T09:34:09;94493.66;;;13.64;51.15
79085;BME280;68486;42.808;23.422;2023-05-10T09:36:34;94493.44;;;13.39;50.43
79085;BME280;68486;42.808;23.422;2023-05-10T09:38:59;94492.25;;;13.48;51.91
79085;BME280;68486;42.808;23.422;2023-05-10T09:41:25;94491.84;;;13.77;50.01
79085;BME280;68486;42.808;23.422;2023-05-10T09:43:55;94485.09;;;13.15;51.96
79085;BME280;68486;42.808;23.422;2023-05-10T09:46:21;94489.94;;;12.98;49.87
79085;BME280;68486;42.808;23.422;2023-05-10T09:48:48;94466.66;;;12.82;49.65
79085;BME280;68486;42.808;23.422;2023-05-10T09:51:21;94484.75;;;13.58;49.69
79085;BME280;68486;42.808;23.422;2023-05-10T09:53:46;94472.19;;;13.60;50.71
79085;BME280;68486;42.808;23.422;2023-05-10T09:56:12;94476.06;;;13.58;51.42
79085;BME280;68486;42.808;23.422;2023-05-10T09:58:39;94475.44;;;13.69;48.71
79085;BME280;68486;42.808;23.422;2023-05-10T10:01:10;94473.84;;;13.48;48.64
79085;BME280;68486;42.808;23.422;2023-05-10T10:03:42;94475.66;;;13.28;49.72
79085;BME280;68486;42.808;23.422;2023-05-10T10:06:07;94469.78;;;13.52;47.02
79085;BME280;68486;42.808;23.422;2023-05-10T10:08:34;94462.47;;;13.54;46.87
79085;BME280;68486;42.808;23.422;2023-05-10T10:10:59;94460.66;;;14.46;46.67
79085;BME280;68486;42.808;23.422;2023-05-10T10:13:24;94459.13;;;14.70;47.56
79085;BME280;68486;42.808;23.422;2023-05-10T10:15:51;94457.00;;;15.23;46.88
79085;BME280;68486;42.808;23.422;2023-05-10T10:18:17;94456.66;;;14.81;46.47
79085;BME280;68486;42.808;23.422;2023-05-10T10:20:43;94431.56;;;14.72;45.06
79085;BME280;68486;42.808;23.422;2023-05-10T10:23:09;94455.25;;;15.10;45.29
79085;BME280;68486;42.808;23.422;2023-05-10T10:25:35;94455.03;;;14.35;45.99
79085;BME280;68486;42.808;23.422;2023-05-10T10:30:42;94453.25;;;15.87;44.25
79085;BME280;68486;42.808;23.422;2023-05-10T10:35:53;94450.47;;;16.19;42.65
79085;BME280;68486;42.808;23.422;2023-05-10T10:38:20;94454.97;;;14.94;43.44
79085;BME280;68486;42.808;23.422;2023-05-10T10:40:46;94460.22;;;14.55;44.17
79085;BME280;68486;42.808;23.422;2023-05-10T10:46:10;94459.31;;;15.38;46.65
79085;BME280;68486;42.808;23.422;2023-05-10T10:48:36;94457.25;;;15.15;46.96
79085;BME280;68486;42.808;23.422;2023-05-10T10:51:02;94462.75;;;15.38;46.94
79085;BME280;68486;42.808;23.422;2023-05-10T10:53:28;94432.59;;;15.03;46.85
79085;BME280;68486;42.808;23.422;2023-05-10T10:56:10;94461.16;;;15.87;45.19
79085;BME280;68486;42.808;23.422;2023-05-10T10:58:37;94455.13;;;15.30;44.84
79085;BME280;68486;42.808;23.422;2023-05-10T11:01:17;94459.97;;;15.02;46.22
79085;BME280;68486;42.808;23.422;2023-05-10T11:06:30;94458.47;;;14.81;48.23
79085;BME280;68486;42.808;23.422;2023-05-10T11:09:04;94453.22;;;14.29;46.72
79085;BME280;68486;42.808;23.422;2023-05-10T11:11:31;94460.47;;;14.47;46.15
79085;BME280;68486;42.808;23.422;2023-05-10T11:14:03;94461.84;;;13.85;46.26
79085;BME280;68486;42.808;23.422;2023-05-10T11:16:41;94465.78;;;14.27;46.59
79085;BME280;68486;42.808;23.422;2023-05-10T11:19:08;94466.13;;;14.44;48.09
79085;BME280;68486;42.808;23.422;2023-05-10T11:24:28;94457.78;;;14.54;46.33
79085;BME280;68486;42.808;23.422;2023-05-10T11:26:53;94452.72;;;14.59;47.25
79085;BME280;68486;42.808;23.422;2023-05-10T11:29:19;94440.00;;;14.49;47.41
79085;BME280;68486;42.808;23.422;2023-05-10T11:31:46;94469.31;;;14.66;47.67
79085;BME280;68486;42.808;23.422;2023-05-10T11:34:23;94456.41;;;14.45;47.98
79085;BME280;68486;42.808;23.422;2023-05-10T11:36:51;94437.13;;;14.57;47.49
79085;BME280;68486;42.808;23.422;2023-05-10T11:39:19;94440.53;;;14.65;45.49
79085;BME280;68486;42.808;23.422;2023-05-10T11:41:48;94442.84;;;13.76;46.90
79085;BME280;68486;42.808;23.422;2023-05-10T11:44:13;94430.44;;;14.48;47.78
79085;BME280;68486;42.808;23.422;2023-05-10T11:46:39;94455.72;;;15.01;48.70
79085;BME280;68486;42.808;23.422;2023-05-10T11:49:04;94453.91;;;15.26;46.35
79085;BME280;68486;42.808;23.422;2023-05-10T11:51:35;94450.78;;;15.11;47.59
79085;BME280;68486;42.808;23.422;2023-05-10T11:54:05;94446.50;;;15.16;47.62
79085;BME280;68486;42.808;23.422;2023-05-10T11:56:32;94447.19;;;15.30;44.91
79085;BME280;68486;42.808;23.422;2023-05-10T11:58:58;94440.22;;;15.11;44.03
79085;BME280;68486;42.808;23.422;2023-05-10T12:01:25;94451.00;;;15.34;46.75
79085;BME280;68486;42.808;23.422;2023-05-10T12:03:52;94446.31;;;15.11;46.23
79085;BME280;68486;42.808;23.422;2023-05-10T12:06:19;94440.25;;;15.61;45.17
79085;BME280;68486;42.808;23.422;2023-05-10T12:08:46;94454.88;;;15.57;46.80
79085;BME280;68486;42.808;23.422;2023-05-10T12:11:12;94453.94;;;14.95;47.63
79085;BME280;68486;42.808;23.422;2023-05-10T12:13:40;94461.16;;;14.74;48.27
79085;BME280;68486;42.808;23.422;2023-05-10T12:16:22;94451.63;;;14.73;48.23
79085;BME280;68486;42.808;23.422;2023-05-10T12:18:52;94452.91;;;14.96;48.59
79085;BME280;68486;42.808;23.422;2023-05-10T12:21:19;94443.13;;;14.71;48.25
79085;BME280;68486;42.808;23.422;2023-05-10T12:23:46;94423.81;;;14.77;50.20
79085;BME280;68486;42.808;23.422;2023-05-10T12:26:12;94434.59;;;15.07;50.22
79085;BME280;68486;42.808;23.422;2023-05-10T12:28:38;94433.72;;;14.82;47.54
79085;BME280;68486;42.808;23.422;2023-05-10T12:31:05;94431.31;;;14.35;46.97
79085;BME280;68486;42.808;23.422;2023-05-10T12:33:42;94431.19;;;15.00;47.45
79085;BME280;68486;42.808;23.422;2023-05-10T12:36:12;94424.94;;;14.95;44.99
79085;BME280;68486;42.808;23.422;2023-05-10T12:38:39;94429.50;;;15.37;47.38
79085;BME280;68486;42.808;23.422;2023-05-10T12:41:12;94420.97;;;15.10;47.46
79085;BME280;68486;42.808;23.422;2023-05-10T12:43:39;94413.66;;;14.81;48.87
79085;BME280;68486;42.808;23.422;2023-05-10T12:46:16;94419.72;;;15.38;49.25
79085;BME280;68486;42.808;23.422;2023-05-10T12:48:43;94422.84;;;15.03;50.19
79085;BME280;68486;42.808;23.422;2023-05-10T12:51:09;94406.47;;;14.63;48.92
79085;BME280;68486;42.808;23.422;2023-05-10T12:53:37;94415.16;;;15.02;48.91
79085;BME280;68486;42.808;23.422;2023-05-10T12:56:03;94413.91;;;14.73;50.13
79085;BME280;68486;42.808;23.422;2023-05-10T12:58:29;94392.72;;;14.03;51.04
79085;BME280;68486;42.808;23.422;2023-05-10T13:00:54;94411.25;;;14.34;52.07
79085;BME280;68486;42.808;23.422;2023-05-10T13:03:21;94416.88;;;14.45;52.35
79085;BME280;68486;42.808;23.422;2023-05-10T13:05:47;94414.28;;;14.31;51.88
79085;BME280;68486;42.808;23.422;2023-05-10T13:08:12;94404.34;;;14.33;52.29
79085;BME280;68486;42.808;23.422;2023-05-10T13:10:37;94405.38;;;14.26;53.57
79085;BME280;68486;42.808;23.422;2023-05-10T13:13:03;94404.47;;;14.58;52.96
79085;BME280;68486;42.808;23.422;2023-05-10T13:15:28;94412.97;;;14.09;52.06
79085;BME280;68486;42.808;23.422;2023-05-10T13:17:54;94396.56;;;14.07;50.35
79085;BME280;68486;42.808;23.422;2023-05-10T13:20:19;94402.38;;;14.22;51.39
79085;BME280;68486;42.808;23.422;2023-05-10T13:22:46;94406.38;;;14.31;53.37
79085;BME280;68486;42.808;23.422;2023-05-10T13:25:11;94398.72;;;14.23;53.27